sensor_id;sensor_type;location;lat;lon;timestamp;P1;durP1;ratioP1;P2;durP2;ratioP2
31660;SDS011;18267;52.234;7.444;2022-10-22T00:01:30;6.38;;;4.88;;
31660;SDS011;18267;52.234;7.444;2022-10-22T00:03:59;7.78;;;4.45;;
31660;SDS011;18267;52.234;7.444;2022-10-22T00:06:25;7.47;;;4.78;;
31660;SDS011;18267;52.234;7.444;2022-10-22T00:08:50;5.05;;;4.13;;
31660;SDS011;18267;52.234;7.444;2022-10-22T00:11:17;6.95;;;5.13;;
31660;SDS011;18267;52.234;7.444;2022-10-22T00:13:44;5.10;;;4.68;;
31660;SDS011;18267;52.234;7.444;2022-10-22T00:16:10;8.23;;;4.38;;
31660;SDS011;18267;52.234;7.444;2022-10-22T00:18:36;12.57;;;4.30;;
31660;SDS011;18267;52.234;7.444;2022-10-22T00:21:03;6.10;;;4.10;;
31660;SDS011;18267;52.234;7.444;2022-10-22T00:23:29;7.13;;;4.13;;
31660;SDS011;18267;52.234;7.444;2022-10-22T00:25:55;5.70;;;3.80;;
31660;SDS011;18267;52.234;7.444;2022-10-22T00:28:21;8.23;;;4.30;;
31660;SDS011;18267;52.234;7.444;2022-10-22T00:30:47;6.55;;;4.60;;
31660;SDS011;18267;52.234;7.444;2022-10-22T00:33:12;7.57;;;4.68;;
31660;SDS011;18267;52.234;7.444;2022-10-22T00:35:38;13.15;;;5.05;;
31660;SDS011;18267;52.234;7.444;2022-10-22T00:38:03;5.85;;;4.35;;
31660;SDS011;18267;52.234;7.444;2022-10-22T00:40:29;6.63;;;4.25;;
31660;SDS011;18267;52.234;7.444;2022-10-22T00:42:55;9.32;;;4.70;;
31660;SDS011;18267;52.234;7.444;2022-10-22T00:45:25;13.10;;;5.38;;
31660;SDS011;18267;52.234;7.444;2022-10-22T00:53:22;7.03;;;5.20;;
31660;SDS011;18267;52.234;7.444;2022-10-22T00:55:58;10.82;;;5.22;;
31660;SDS011;18267;52.234;7.444;2022-10-22T00:58:25;6.80;;;4.93;;
31660;SDS011;18267;52.234;7.444;2022-10-22T01:00:53;6.88;;;4.28;;
31660;SDS011;18267;52.234;7.444;2022-10-22T01:03:20;7.18;;;4.93;;
31660;SDS011;18267;52.234;7.444;2022-10-22T01:05:50;8.07;;;4.75;;
31660;SDS011;18267;52.234;7.444;2022-10-22T01:08:24;6.43;;;4.40;;
31660;SDS011;18267;52.234;7.444;2022-10-22T01:13:53;10.02;;;4.68;;
31660;SDS011;18267;52.234;7.444;2022-10-22T01:19:49;6.97;;;4.45;;
31660;SDS011;18267;52.234;7.444;2022-10-22T01:22:29;6.03;;;5.07;;
31660;SDS011;18267;52.234;7.444;2022-10-22T01:25:16;7.47;;;4.78;;
31660;SDS011;18267;52.234;7.444;2022-10-22T01:30:45;8.93;;;4.72;;
31660;SDS011;18267;52.234;7.444;2022-10-22T01:33:16;5.53;;;4.70;;
31660;SDS011;18267;52.234;7.444;2022-10-22T01:35:46;11.48;;;4.82;;
31660;SDS011;18267;52.234;7.444;2022-10-22T01:38:13;5.22;;;4.38;;
31660;SDS011;18267;52.234;7.444;2022-10-22T01:40:41;6.90;;;4.13;;
31660;SDS011;18267;52.234;7.444;2022-10-22T01:43:08;7.80;;;4.45;;
31660;SDS011;18267;52.234;7.444;2022-10-22T01:45:46;6.85;;;4.88;;
31660;SDS011;18267;52.234;7.444;2022-10-22T01:48:32;6.80;;;4.20;;
31660;SDS011;18267;52.234;7.444;2022-10-22T01:54:02;11.30;;;4.95;;
31660;SDS011;18267;52.234;7.444;2022-10-22T02:00:14;7.75;;;4.70;;
31660;SDS011;18267;52.234;7.444;2022-10-22T02:07:46;5.18;;;3.78;;
31660;SDS011;18267;52.234;7.444;2022-10-22T02:10:18;6.65;;;4.15;;
31660;SDS011;18267;52.234;7.444;2022-10-22T02:12:44;8.13;;;4.75;;
31660;SDS011;18267;52.234;7.444;2022-10-22T02:15:14;10.00;;;4.68;;
31660;SDS011;18267;52.234;7.444;2022-10-22T02:17:42;9.98;;;3.88;;
31660;SDS011;18267;52.234;7.444;2022-10-22T02:20:15;15.45;;;4.78;;
31660;SDS011;18267;52.234;7.444;2022-10-22T02:22:51;6.85;;;4.25;;
31660;SDS011;18267;52.234;7.444;2022-10-22T02:25:17;6.32;;;4.07;;
31660;SDS011;18267;52.234;7.444;2022-10-22T02:28:00;7.45;;;5.20;;
31660;SDS011;18267;52.234;7.444;2022-10-22T02:30:32;8.23;;;4.47;;
31660;SDS011;18267;52.234;7.444;2022-10-22T02:33:01;5.57;;;4.47;;
31660;SDS011;18267;52.234;7.444;2022-10-22T02:35:43;5.85;;;4.22;;
31660;SDS011;18267;52.234;7.444;2022-10-22T02:38:10;4.93;;;4.38;;
31660;SDS011;18267;52.234;7.444;2022-10-22T02:40:38;5.78;;;4.28;;
31660;SDS011;18267;52.234;7.444;2022-10-22T02:43:04;8.50;;;4.70;;
31660;SDS011;18267;52.234;7.444;2022-10-22T02:45:30;7.85;;;4.88;;
31660;SDS011;18267;52.234;7.444;2022-10-22T02:47:57;10.48;;;4.45;;
31660;SDS011;18267;52.234;7.444;2022-10-22T02:50:23;8.20;;;4.65;;
31660;SDS011;18267;52.234;7.444;2022-10-22T02:52:48;5.07;;;4.57;;
31660;SDS011;18267;52.234;7.444;2022-10-22T02:55:14;9.82;;;4.97;;
31660;SDS011;18267;52.234;7.444;2022-10-22T02:57:39;5.95;;;5.03;;
31660;SDS011;18267;52.234;7.444;2022-10-22T03:00:05;7.57;;;4.85;;
31660;SDS011;18267;52.234;7.444;2022-10-22T03:02:33;5.38;;;4.43;;
31660;SDS011;18267;52.234;7.444;2022-10-22T03:04:58;7.00;;;4.43;;
31660;SDS011;18267;52.234;7.444;2022-10-22T03:07:24;8.30;;;5.07;;
31660;SDS011;18267;52.234;7.444;2022-10-22T03:09:49;8.90;;;4.45;;
31660;SDS011;18267;52.234;7.444;2022-10-22T03:12:15;4.55;;;4.07;;
31660;SDS011;18267;52.234;7.444;2022-10-22T03:14:41;11.27;;;4.78;;
31660;SDS011;18267;52.234;7.444;2022-10-22T03:17:06;5.53;;;4.78;;
31660;SDS011;18267;52.234;7.444;2022-10-22T03:19:32;7.07;;;5.03;;
31660;SDS011;18267;52.234;7.444;2022-10-22T03:24:28;9.68;;;4.63;;
31660;SDS011;18267;52.234;7.444;2022-10-22T03:27:00;8.88;;;4.60;;
31660;SDS011;18267;52.234;7.444;2022-10-22T03:29:26;9.73;;;4.68;;
31660;SDS011;18267;52.234;7.444;2022-10-22T03:31:52;6.70;;;4.22;;
31660;SDS011;18267;52.234;7.444;2022-10-22T03:34:18;5.82;;;4.00;;
31660;SDS011;18267;52.234;7.444;2022-10-22T03:36:44;7.65;;;4.55;;
31660;SDS011;18267;52.234;7.444;2022-10-22T03:39:11;6.78;;;4.10;;
31660;SDS011;18267;52.234;7.444;2022-10-22T03:41:38;5.30;;;4.03;;
31660;SDS011;18267;52.234;7.444;2022-10-22T03:44:04;7.28;;;4.95;;
31660;SDS011;18267;52.234;7.444;2022-10-22T03:46:30;5.40;;;3.88;;
31660;SDS011;18267;52.234;7.444;2022-10-22T03:48:56;4.45;;;3.72;;
31660;SDS011;18267;52.234;7.444;2022-10-22T03:51:21;10.68;;;4.05;;
31660;SDS011;18267;52.234;7.444;2022-10-22T03:53:47;5.65;;;4.25;;
31660;SDS011;18267;52.234;7.444;2022-10-22T03:56:12;5.45;;;4.47;;
31660;SDS011;18267;52.234;7.444;2022-10-22T03:58:38;5.15;;;4.10;;
31660;SDS011;18267;52.234;7.444;2022-10-22T04:01:05;6.03;;;4.05;;
31660;SDS011;18267;52.234;7.444;2022-10-22T04:03:32;5.45;;;4.18;;
31660;SDS011;18267;52.234;7.444;2022-10-22T04:06:08;4.90;;;4.13;;
31660;SDS011;18267;52.234;7.444;2022-10-22T04:08:35;6.57;;;3.97;;
31660;SDS011;18267;52.234;7.444;2022-10-22T04:11:02;5.65;;;4.13;;
31660;SDS011;18267;52.234;7.444;2022-10-22T04:13:28;3.70;;;3.35;;
31660;SDS011;18267;52.234;7.444;2022-10-22T04:15:53;4.93;;;4.50;;
31660;SDS011;18267;52.234;7.444;2022-10-22T04:18:20;5.13;;;4.20;;
31660;SDS011;18267;52.234;7.444;2022-10-22T04:20:47;7.88;;;5.22;;
31660;SDS011;18267;52.234;7.444;2022-10-22T04:23:15;8.30;;;5.05;;
31660;SDS011;18267;52.234;7.444;2022-10-22T04:25:40;8.40;;;4.47;;
31660;SDS011;18267;52.234;7.444;2022-10-22T04:28:06;5.38;;;3.95;;
31660;SDS011;18267;52.234;7.444;2022-10-22T04:30:33;10.02;;;4.20;;
31660;SDS011;18267;52.234;7.444;2022-10-22T04:32:59;15.07;;;5.20;;
31660;SDS011;18267;52.234;7.444;2022-10-22T04:35:25;6.20;;;4.30;;
31660;SDS011;18267;52.234;7.444;2022-10-22T04:37:50;7.40;;;4.25;;
31660;SDS011;18267;52.234;7.444;2022-10-22T04:40:16;6.32;;;4.50;;
31660;SDS011;18267;52.234;7.444;2022-10-22T04:42:41;6.97;;;4.10;;
31660;SDS011;18267;52.234;7.444;2022-10-22T04:45:07;6.93;;;5.13;;
31660;SDS011;18267;52.234;7.444;2022-10-22T04:47:33;8.02;;;4.57;;
31660;SDS011;18267;52.234;7.444;2022-10-22T04:49:58;9.25;;;4.63;;
31660;SDS011;18267;52.234;7.444;2022-10-22T04:52:24;5.95;;;4.05;;
31660;SDS011;18267;52.234;7.444;2022-10-22T04:54:49;6.68;;;4.43;;
31660;SDS011;18267;52.234;7.444;2022-10-22T04:57:15;5.30;;;4.30;;
31660;SDS011;18267;52.234;7.444;2022-10-22T04:59:40;14.90;;;4.90;;
31660;SDS011;18267;52.234;7.444;2022-10-22T05:02:06;7.80;;;4.18;;
31660;SDS011;18267;52.234;7.444;2022-10-22T05:04:32;7.25;;;4.70;;
31660;SDS011;18267;52.234;7.444;2022-10-22T05:06:57;6.45;;;4.65;;
31660;SDS011;18267;52.234;7.444;2022-10-22T05:09:23;9.43;;;4.70;;
31660;SDS011;18267;52.234;7.444;2022-10-22T05:11:49;10.50;;;4.68;;
31660;SDS011;18267;52.234;7.444;2022-10-22T05:14:17;8.07;;;4.55;;
31660;SDS011;18267;52.234;7.444;2022-10-22T05:16:45;5.30;;;4.65;;
31660;SDS011;18267;52.234;7.444;2022-10-22T05:19:19;6.47;;;4.50;;
31660;SDS011;18267;52.234;7.444;2022-10-22T05:21:48;8.63;;;4.88;;
31660;SDS011;18267;52.234;7.444;2022-10-22T05:24:14;7.05;;;4.60;;
31660;SDS011;18267;52.234;7.444;2022-10-22T05:26:39;6.20;;;5.15;;
31660;SDS011;18267;52.234;7.444;2022-10-22T05:29:05;8.82;;;4.90;;
31660;SDS011;18267;52.234;7.444;2022-10-22T05:31:30;7.18;;;4.68;;
31660;SDS011;18267;52.234;7.444;2022-10-22T05:33:56;12.27;;;4.40;;
31660;SDS011;18267;52.234;7.444;2022-10-22T05:36:22;8.68;;;4.80;;
31660;SDS011;18267;52.234;7.444;2022-10-22T05:38:48;6.65;;;4.47;;
31660;SDS011;18267;52.234;7.444;2022-10-22T05:41:16;12.27;;;5.40;;
31660;SDS011;18267;52.234;7.444;2022-10-22T05:43:42;11.38;;;6.03;;
31660;SDS011;18267;52.234;7.444;2022-10-22T05:46:12;12.25;;;6.05;;
31660;SDS011;18267;52.234;7.444;2022-10-22T05:48:39;10.23;;;4.88;;
31660;SDS011;18267;52.234;7.444;2022-10-22T05:51:06;6.85;;;5.05;;
31660;SDS011;18267;52.234;7.444;2022-10-22T05:53:34;6.93;;;5.40;;
31660;SDS011;18267;52.234;7.444;2022-10-22T05:56:02;7.88;;;5.68;;
31660;SDS011;18267;52.234;7.444;2022-10-22T05:58:29;10.50;;;5.53;;
31660;SDS011;18267;52.234;7.444;2022-10-22T06:00:59;9.18;;;5.60;;
31660;SDS011;18267;52.234;7.444;2022-10-22T06:03:26;9.13;;;4.90;;
31660;SDS011;18267;52.234;7.444;2022-10-22T06:05:52;14.68;;;5.65;;
31660;SDS011;18267;52.234;7.444;2022-10-22T06:08:18;10.98;;;5.30;;
31660;SDS011;18267;52.234;7.444;2022-10-22T06:10:44;5.90;;;4.53;;
31660;SDS011;18267;52.234;7.444;2022-10-22T06:13:09;10.35;;;5.00;;
31660;SDS011;18267;52.234;7.444;2022-10-22T06:15:35;6.32;;;4.07;;
31660;SDS011;18267;52.234;7.444;2022-10-22T06:18:00;5.43;;;4.10;;
31660;SDS011;18267;52.234;7.444;2022-10-22T06:20:26;6.47;;;4.18;;
31660;SDS011;18267;52.234;7.444;2022-10-22T06:22:52;6.80;;;4.10;;
31660;SDS011;18267;52.234;7.444;2022-10-22T06:25:17;10.80;;;4.40;;
31660;SDS011;18267;52.234;7.444;2022-10-22T06:27:43;4.68;;;4.05;;
31660;SDS011;18267;52.234;7.444;2022-10-22T06:30:13;12.15;;;4.95;;
31660;SDS011;18267;52.234;7.444;2022-10-22T06:32:39;7.15;;;4.63;;
31660;SDS011;18267;52.234;7.444;2022-10-22T06:35:05;9.93;;;4.18;;
31660;SDS011;18267;52.234;7.444;2022-10-22T06:37:31;6.25;;;4.25;;
31660;SDS011;18267;52.234;7.444;2022-10-22T06:39:56;8.45;;;4.80;;
31660;SDS011;18267;52.234;7.444;2022-10-22T06:42:22;10.68;;;4.25;;
31660;SDS011;18267;52.234;7.444;2022-10-22T06:44:47;5.53;;;4.35;;
31660;SDS011;18267;52.234;7.444;2022-10-22T06:47:13;11.50;;;4.18;;
31660;SDS011;18267;52.234;7.444;2022-10-22T06:49:38;7.72;;;4.43;;
31660;SDS011;18267;52.234;7.444;2022-10-22T06:52:04;8.82;;;4.65;;
31660;SDS011;18267;52.234;7.444;2022-10-22T06:54:29;9.32;;;3.97;;
31660;SDS011;18267;52.234;7.444;2022-10-22T06:56:55;9.98;;;5.40;;
31660;SDS011;18267;52.234;7.444;2022-10-22T06:59:20;7.53;;;4.93;;
31660;SDS011;18267;52.234;7.444;2022-10-22T07:01:46;11.82;;;4.88;;
31660;SDS011;18267;52.234;7.444;2022-10-22T07:04:12;18.73;;;5.25;;
31660;SDS011;18267;52.234;7.444;2022-10-22T07:06:37;6.10;;;4.85;;
31660;SDS011;18267;52.234;7.444;2022-10-22T07:09:03;6.05;;;5.03;;
31660;SDS011;18267;52.234;7.444;2022-10-22T07:11:29;17.08;;;5.60;;
31660;SDS011;18267;52.234;7.444;2022-10-22T07:14:09;8.77;;;5.15;;
31660;SDS011;18267;52.234;7.444;2022-10-22T07:16:36;8.50;;;5.13;;
31660;SDS011;18267;52.234;7.444;2022-10-22T07:19:02;18.63;;;5.35;;
31660;SDS011;18267;52.234;7.444;2022-10-22T07:21:28;12.68;;;5.35;;
31660;SDS011;18267;52.234;7.444;2022-10-22T07:23:55;9.02;;;5.25;;
31660;SDS011;18267;52.234;7.444;2022-10-22T07:26:21;12.15;;;5.25;;
31660;SDS011;18267;52.234;7.444;2022-10-22T07:28:49;13.73;;;5.30;;
31660;SDS011;18267;52.234;7.444;2022-10-22T07:31:15;6.70;;;5.05;;
31660;SDS011;18267;52.234;7.444;2022-10-22T07:33:42;7.40;;;4.60;;
31660;SDS011;18267;52.234;7.444;2022-10-22T07:36:09;14.07;;;5.65;;
31660;SDS011;18267;52.234;7.444;2022-10-22T07:38:41;12.13;;;5.30;;
31660;SDS011;18267;52.234;7.444;2022-10-22T07:41:07;8.45;;;5.70;;
31660;SDS011;18267;52.234;7.444;2022-10-22T07:43:33;7.15;;;4.45;;
31660;SDS011;18267;52.234;7.444;2022-10-22T07:45:59;8.50;;;5.88;;
31660;SDS011;18267;52.234;7.444;2022-10-22T07:48:26;6.90;;;5.70;;
31660;SDS011;18267;52.234;7.444;2022-10-22T07:50:52;18.05;;;5.72;;
31660;SDS011;18267;52.234;7.444;2022-10-22T07:53:17;8.38;;;5.05;;
31660;SDS011;18267;52.234;7.444;2022-10-22T07:55:48;7.40;;;5.15;;
31660;SDS011;18267;52.234;7.444;2022-10-22T07:58:14;9.75;;;5.38;;
31660;SDS011;18267;52.234;7.444;2022-10-22T08:00:41;13.40;;;6.03;;
31660;SDS011;18267;52.234;7.444;2022-10-22T08:03:07;9.82;;;5.47;;
31660;SDS011;18267;52.234;7.444;2022-10-22T08:05:34;14.73;;;5.25;;
31660;SDS011;18267;52.234;7.444;2022-10-22T08:08:00;12.30;;;6.35;;
31660;SDS011;18267;52.234;7.444;2022-10-22T08:10:25;19.58;;;5.43;;
31660;SDS011;18267;52.234;7.444;2022-10-22T08:12:51;11.93;;;5.97;;
31660;SDS011;18267;52.234;7.444;2022-10-22T08:15:16;18.30;;;5.95;;
31660;SDS011;18267;52.234;7.444;2022-10-22T08:17:42;11.63;;;6.60;;
31660;SDS011;18267;52.234;7.444;2022-10-22T08:20:08;13.35;;;5.78;;
31660;SDS011;18267;52.234;7.444;2022-10-22T08:22:34;10.05;;;6.22;;
31660;SDS011;18267;52.234;7.444;2022-10-22T08:24:59;11.15;;;5.50;;
31660;SDS011;18267;52.234;7.444;2022-10-22T08:27:25;13.88;;;4.55;;
31660;SDS011;18267;52.234;7.444;2022-10-22T08:29:51;13.98;;;4.43;;
31660;SDS011;18267;52.234;7.444;2022-10-22T08:32:16;6.70;;;3.92;;
31660;SDS011;18267;52.234;7.444;2022-10-22T08:34:42;15.73;;;3.92;;
31660;SDS011;18267;52.234;7.444;2022-10-22T08:37:07;13.25;;;4.00;;
31660;SDS011;18267;52.234;7.444;2022-10-22T08:39:34;13.65;;;3.10;;
31660;SDS011;18267;52.234;7.444;2022-10-22T08:44:49;11.32;;;3.20;;
31660;SDS011;18267;52.234;7.444;2022-10-22T08:50:41;12.15;;;3.28;;
31660;SDS011;18267;52.234;7.444;2022-10-22T08:53:11;8.40;;;2.80;;
31660;SDS011;18267;52.234;7.444;2022-10-22T08:55:46;8.07;;;2.38;;
31660;SDS011;18267;52.234;7.444;2022-10-22T08:58:28;10.73;;;2.85;;
31660;SDS011;18267;52.234;7.444;2022-10-22T09:04:02;9.13;;;2.47;;
31660;SDS011;18267;52.234;7.444;2022-10-22T09:06:36;7.10;;;2.63;;
31660;SDS011;18267;52.234;7.444;2022-10-22T09:09:09;11.60;;;2.20;;
31660;SDS011;18267;52.234;7.444;2022-10-22T09:11:38;11.93;;;2.30;;
31660;SDS011;18267;52.234;7.444;2022-10-22T09:14:09;7.47;;;2.58;;
31660;SDS011;18267;52.234;7.444;2022-10-22T09:16:42;14.05;;;2.63;;
31660;SDS011;18267;52.234;7.444;2022-10-22T09:22:09;7.38;;;2.42;;
31660;SDS011;18267;52.234;7.444;2022-10-22T09:24:47;6.35;;;2.00;;
31660;SDS011;18267;52.234;7.444;2022-10-22T09:27:18;5.88;;;1.85;;
31660;SDS011;18267;52.234;7.444;2022-10-22T09:29:47;10.70;;;2.53;;
31660;SDS011;18267;52.234;7.444;2022-10-22T09:32:14;9.63;;;2.15;;
31660;SDS011;18267;52.234;7.444;2022-10-22T09:34:42;4.47;;;1.67;;
31660;SDS011;18267;52.234;7.444;2022-10-22T09:37:09;5.63;;;2.10;;
31660;SDS011;18267;52.234;7.444;2022-10-22T09:39:39;8.90;;;1.80;;
31660;SDS011;18267;52.234;7.444;2022-10-22T09:42:09;8.77;;;2.55;;
31660;SDS011;18267;52.234;7.444;2022-10-22T09:44:38;13.27;;;1.88;;
31660;SDS011;18267;52.234;7.444;2022-10-22T09:47:04;15.75;;;2.25;;
31660;SDS011;18267;52.234;7.444;2022-10-22T09:49:32;8.82;;;1.67;;
31660;SDS011;18267;52.234;7.444;2022-10-22T09:51:59;13.00;;;2.17;;
31660;SDS011;18267;52.234;7.444;2022-10-22T09:59:36;8.02;;;1.73;;
31660;SDS011;18267;52.234;7.444;2022-10-22T10:02:09;9.63;;;1.85;;
31660;SDS011;18267;52.234;7.444;2022-10-22T10:07:11;5.78;;;1.65;;
31660;SDS011;18267;52.234;7.444;2022-10-22T10:09:46;18.20;;;2.05;;
31660;SDS011;18267;52.234;7.444;2022-10-22T10:21:03;6.75;;;1.85;;
31660;SDS011;18267;52.234;7.444;2022-10-22T10:23:45;9.93;;;1.55;;
31660;SDS011;18267;52.234;7.444;2022-10-22T10:31:58;9.60;;;1.50;;
31660;SDS011;18267;52.234;7.444;2022-10-22T10:34:45;6.82;;;1.63;;
31660;SDS011;18267;52.234;7.444;2022-10-22T10:37:32;6.60;;;1.63;;
31660;SDS011;18267;52.234;7.444;2022-10-22T10:40:22;16.35;;;2.10;;
31660;SDS011;18267;52.234;7.444;2022-10-22T10:43:05;18.35;;;2.17;;
31660;SDS011;18267;52.234;7.444;2022-10-22T10:48:49;5.90;;;1.50;;
31660;SDS011;18267;52.234;7.444;2022-10-22T10:57:18;10.70;;;1.13;;
31660;SDS011;18267;52.234;7.444;2022-10-22T11:00:13;9.52;;;1.38;;
31660;SDS011;18267;52.234;7.444;2022-10-22T11:02:48;3.47;;;0.85;;
31660;SDS011;18267;52.234;7.444;2022-10-22T11:08:42;9.00;;;1.20;;
31660;SDS011;18267;52.234;7.444;2022-10-22T11:11:28;8.25;;;1.60;;
31660;SDS011;18267;52.234;7.444;2022-10-22T11:14:21;7.53;;;1.75;;
31660;SDS011;18267;52.234;7.444;2022-10-22T11:17:01;13.73;;;1.73;;
31660;SDS011;18267;52.234;7.444;2022-10-22T11:19:39;12.75;;;1.50;;
31660;SDS011;18267;52.234;7.444;2022-10-22T11:22:10;12.43;;;1.67;;
31660;SDS011;18267;52.234;7.444;2022-10-22T11:24:48;12.10;;;1.85;;
31660;SDS011;18267;52.234;7.444;2022-10-22T11:30:00;9.18;;;1.45;;
31660;SDS011;18267;52.234;7.444;2022-10-22T11:32:36;11.23;;;1.80;;
31660;SDS011;18267;52.234;7.444;2022-10-22T11:35:03;3.10;;;1.35;;
31660;SDS011;18267;52.234;7.444;2022-10-22T11:37:33;10.65;;;1.30;;
31660;SDS011;18267;52.234;7.444;2022-10-22T11:43:24;11.40;;;1.75;;
31660;SDS011;18267;52.234;7.444;2022-10-22T11:48:05;6.50;;;2.15;;
31660;SDS011;18267;52.234;7.444;2022-10-22T11:55:51;8.20;;;1.55;;
31660;SDS011;18267;52.234;7.444;2022-10-22T11:58:26;11.88;;;1.63;;
31660;SDS011;18267;52.234;7.444;2022-10-22T12:00:53;4.68;;;1.52;;
31660;SDS011;18267;52.234;7.444;2022-10-22T12:08:42;5.78;;;1.42;;
31660;SDS011;18267;52.234;7.444;2022-10-22T12:16:28;9.57;;;1.73;;
31660;SDS011;18267;52.234;7.444;2022-10-22T12:21:34;4.45;;;1.70;;
31660;SDS011;18267;52.234;7.444;2022-10-22T12:24:03;8.23;;;2.80;;
31660;SDS011;18267;52.234;7.444;2022-10-22T12:26:31;5.97;;;1.77;;
31660;SDS011;18267;52.234;7.444;2022-10-22T12:29:01;13.35;;;2.15;;
31660;SDS011;18267;52.234;7.444;2022-10-22T12:31:36;4.10;;;1.77;;
31660;SDS011;18267;52.234;7.444;2022-10-22T12:34:03;7.40;;;1.48;;
31660;SDS011;18267;52.234;7.444;2022-10-22T12:36:30;7.97;;;2.00;;
31660;SDS011;18267;52.234;7.444;2022-10-22T12:39:00;14.43;;;1.90;;
31660;SDS011;18267;52.234;7.444;2022-10-22T12:41:29;8.27;;;2.10;;
31660;SDS011;18267;52.234;7.444;2022-10-22T12:43:59;6.38;;;2.05;;
31660;SDS011;18267;52.234;7.444;2022-10-22T12:46:27;11.57;;;2.40;;
31660;SDS011;18267;52.234;7.444;2022-10-22T12:48:57;7.30;;;1.80;;
31660;SDS011;18267;52.234;7.444;2022-10-22T12:51:24;8.10;;;2.33;;
31660;SDS011;18267;52.234;7.444;2022-10-22T12:53:53;10.48;;;2.30;;
31660;SDS011;18267;52.234;7.444;2022-10-22T12:56:22;4.95;;;2.13;;
31660;SDS011;18267;52.234;7.444;2022-10-22T12:58:57;9.65;;;2.30;;
31660;SDS011;18267;52.234;7.444;2022-10-22T13:01:26;10.32;;;2.00;;
31660;SDS011;18267;52.234;7.444;2022-10-22T13:04:12;4.65;;;2.28;;
31660;SDS011;18267;52.234;7.444;2022-10-22T13:12:07;5.50;;;2.25;;
31660;SDS011;18267;52.234;7.444;2022-10-22T13:14:38;5.95;;;2.55;;
31660;SDS011;18267;52.234;7.444;2022-10-22T13:17:09;10.15;;;2.65;;
31660;SDS011;18267;52.234;7.444;2022-10-22T13:22:24;14.55;;;2.90;;
31660;SDS011;18267;52.234;7.444;2022-10-22T13:24:56;8.32;;;2.78;;
31660;SDS011;18267;52.234;7.444;2022-10-22T13:27:24;8.35;;;2.55;;
31660;SDS011;18267;52.234;7.444;2022-10-22T13:29:51;14.07;;;3.28;;
31660;SDS011;18267;52.234;7.444;2022-10-22T13:32:28;6.75;;;3.10;;
31660;SDS011;18267;52.234;7.444;2022-10-22T13:34:59;7.65;;;3.03;;
31660;SDS011;18267;52.234;7.444;2022-10-22T13:37:26;11.80;;;3.35;;
31660;SDS011;18267;52.234;7.444;2022-10-22T13:39:53;7.63;;;3.13;;
31660;SDS011;18267;52.234;7.444;2022-10-22T13:42:19;10.52;;;2.83;;
31660;SDS011;18267;52.234;7.444;2022-10-22T13:44:45;6.68;;;3.03;;
31660;SDS011;18267;52.234;7.444;2022-10-22T13:47:22;5.18;;;2.78;;
31660;SDS011;18267;52.234;7.444;2022-10-22T13:49:53;7.05;;;3.17;;
31660;SDS011;18267;52.234;7.444;2022-10-22T13:52:26;2.45;;;2.00;;
31660;SDS011;18267;52.234;7.444;2022-10-22T13:54:56;5.88;;;2.85;;
31660;SDS011;18267;52.234;7.444;2022-10-22T13:57:22;14.20;;;3.28;;
31660;SDS011;18267;52.234;7.444;2022-10-22T13:59:47;14.13;;;2.97;;
31660;SDS011;18267;52.234;7.444;2022-10-22T14:02:13;6.35;;;2.53;;
31660;SDS011;18267;52.234;7.444;2022-10-22T14:04:40;10.05;;;2.75;;
31660;SDS011;18267;52.234;7.444;2022-10-22T14:07:15;14.82;;;2.53;;
31660;SDS011;18267;52.234;7.444;2022-10-22T14:09:41;9.70;;;2.58;;
31660;SDS011;18267;52.234;7.444;2022-10-22T14:12:14;6.93;;;2.58;;
31660;SDS011;18267;52.234;7.444;2022-10-22T14:14:41;11.43;;;3.15;;
31660;SDS011;18267;52.234;7.444;2022-10-22T14:17:11;10.77;;;2.65;;
31660;SDS011;18267;52.234;7.444;2022-10-22T14:19:40;9.95;;;2.58;;
31660;SDS011;18267;52.234;7.444;2022-10-22T14:22:15;11.23;;;2.00;;
31660;SDS011;18267;52.234;7.444;2022-10-22T14:24:42;8.88;;;2.15;;
31660;SDS011;18267;52.234;7.444;2022-10-22T14:27:10;10.63;;;2.58;;
31660;SDS011;18267;52.234;7.444;2022-10-22T14:29:36;8.05;;;2.28;;
31660;SDS011;18267;52.234;7.444;2022-10-22T14:32:03;7.43;;;2.10;;
31660;SDS011;18267;52.234;7.444;2022-10-22T14:34:35;11.85;;;1.98;;
31660;SDS011;18267;52.234;7.444;2022-10-22T14:37:01;11.00;;;2.47;;
31660;SDS011;18267;52.234;7.444;2022-10-22T14:39:27;14.00;;;2.80;;
31660;SDS011;18267;52.234;7.444;2022-10-22T14:41:52;10.00;;;1.77;;
31660;SDS011;18267;52.234;7.444;2022-10-22T14:44:18;10.30;;;2.20;;
31660;SDS011;18267;52.234;7.444;2022-10-22T14:46:43;11.27;;;3.40;;
31660;SDS011;18267;52.234;7.444;2022-10-22T14:49:10;11.43;;;2.72;;
31660;SDS011;18267;52.234;7.444;2022-10-22T14:51:36;9.40;;;2.50;;
31660;SDS011;18267;52.234;7.444;2022-10-22T14:54:02;42.33;;;4.25;;
31660;SDS011;18267;52.234;7.444;2022-10-22T14:56:27;14.95;;;2.80;;
31660;SDS011;18267;52.234;7.444;2022-10-22T14:58:53;9.70;;;2.40;;
31660;SDS011;18267;52.234;7.444;2022-10-22T15:01:19;7.50;;;2.08;;
31660;SDS011;18267;52.234;7.444;2022-10-22T15:03:44;5.30;;;2.10;;
31660;SDS011;18267;52.234;7.444;2022-10-22T15:06:10;4.30;;;1.95;;
31660;SDS011;18267;52.234;7.444;2022-10-22T15:08:35;8.38;;;1.67;;
31660;SDS011;18267;52.234;7.444;2022-10-22T15:11:05;10.60;;;2.00;;
31660;SDS011;18267;52.234;7.444;2022-10-22T15:13:35;6.63;;;2.00;;
31660;SDS011;18267;52.234;7.444;2022-10-22T15:16:04;6.60;;;1.85;;
31660;SDS011;18267;52.234;7.444;2022-10-22T15:18:30;8.63;;;2.42;;
31660;SDS011;18267;52.234;7.444;2022-10-22T15:21:00;5.03;;;2.13;;
31660;SDS011;18267;52.234;7.444;2022-10-22T15:23:28;13.73;;;2.88;;
31660;SDS011;18267;52.234;7.444;2022-10-22T15:25:54;10.25;;;1.80;;
31660;SDS011;18267;52.234;7.444;2022-10-22T15:28:20;18.50;;;3.88;;
31660;SDS011;18267;52.234;7.444;2022-10-22T15:30:55;8.13;;;2.45;;
31660;SDS011;18267;52.234;7.444;2022-10-22T15:33:21;5.03;;;2.22;;
31660;SDS011;18267;52.234;7.444;2022-10-22T15:35:48;10.40;;;2.88;;
31660;SDS011;18267;52.234;7.444;2022-10-22T15:38:13;7.30;;;2.00;;
31660;SDS011;18267;52.234;7.444;2022-10-22T15:40:39;8.70;;;2.33;;
31660;SDS011;18267;52.234;7.444;2022-10-22T15:43:04;5.38;;;1.88;;
31660;SDS011;18267;52.234;7.444;2022-10-22T15:45:30;6.60;;;1.88;;
31660;SDS011;18267;52.234;7.444;2022-10-22T15:47:56;6.60;;;1.70;;
31660;SDS011;18267;52.234;7.444;2022-10-22T15:50:21;8.88;;;1.65;;
31660;SDS011;18267;52.234;7.444;2022-10-22T15:52:47;13.85;;;2.30;;
31660;SDS011;18267;52.234;7.444;2022-10-22T15:55:13;5.88;;;1.77;;
31660;SDS011;18267;52.234;7.444;2022-10-22T15:57:38;6.90;;;1.80;;
31660;SDS011;18267;52.234;7.444;2022-10-22T16:00:05;5.30;;;2.13;;
31660;SDS011;18267;52.234;7.444;2022-10-22T16:02:32;4.78;;;2.10;;
31660;SDS011;18267;52.234;7.444;2022-10-22T16:04:57;4.70;;;1.73;;
31660;SDS011;18267;52.234;7.444;2022-10-22T16:07:24;17.65;;;2.35;;
31660;SDS011;18267;52.234;7.444;2022-10-22T16:09:50;4.97;;;1.92;;
31660;SDS011;18267;52.234;7.444;2022-10-22T16:12:19;12.02;;;1.92;;
31660;SDS011;18267;52.234;7.444;2022-10-22T16:14:44;6.32;;;2.03;;
31660;SDS011;18267;52.234;7.444;2022-10-22T16:17:10;8.65;;;1.60;;
31660;SDS011;18267;52.234;7.444;2022-10-22T16:19:35;10.20;;;1.63;;
31660;SDS011;18267;52.234;7.444;2022-10-22T16:22:01;4.07;;;1.50;;
31660;SDS011;18267;52.234;7.444;2022-10-22T16:24:27;3.80;;;1.42;;
31660;SDS011;18267;52.234;7.444;2022-10-22T16:26:52;4.38;;;1.77;;
31660;SDS011;18267;52.234;7.444;2022-10-22T16:29:19;6.20;;;1.58;;
31660;SDS011;18267;52.234;7.444;2022-10-22T16:31:44;4.15;;;1.73;;
31660;SDS011;18267;52.234;7.444;2022-10-22T16:34:10;20.95;;;2.72;;
31660;SDS011;18267;52.234;7.444;2022-10-22T16:36:39;16.52;;;2.78;;
31660;SDS011;18267;52.234;7.444;2022-10-22T16:39:05;10.73;;;2.63;;
31660;SDS011;18267;52.234;7.444;2022-10-22T16:41:31;20.02;;;3.50;;